Smithfield - 24 Hour Table
Date & TimeSolar
Radiation
(W/m²)
Wind
Speed
(mph)
Wind
Direction
(degrees)
Air
Temperature
(°F)
Relative
Humidity
(%)
Precipitation
(inches)
Max
Wind
Speed
(mph)
2024/03/01 20:00 0 5.0 6 40.5 81 0.00 14.2
2024/03/01 19:00 0 7.4 328 42.9 73 0.00 17.4
2024/03/01 18:00 15 5.2 22 46.3 39 0.00 13.1
2024/03/01 17:00 70 5.5 242 49.2 53 0.00 11.0
2024/03/01 16:00 128 13.8 218 50.3 42 0.00 28.9
2024/03/01 15:00 385 15.3 200 52.0 37 0.00 32.8
2024/03/01 14:00 470 14.9 215 52.3 39 0.00 28.2
2024/03/01 13:00 493 12.5 219 51.4 40 0.00 20.6
2024/03/01 12:00 349 12.7 210 48.9 44 0.00 22.8
2024/03/01 11:00 213 14.2 209 48.0 49 0.00 25.7
2024/03/01 10:00 174 11.5 208 46.4 51 0.00 21.7
2024/03/01 09:00 73 9.6 170 45.4 54 0.00 17.4
2024/03/01 08:00 22 8.5 162 44.5 51 0.00 16.0
2024/03/01 07:00 0 7.8 153 44.0 64 0.00 21.4
2024/03/01 06:00 0 5.2 141 41.8 59 0.00 15.3
2024/03/01 05:00 0 14.9 185 44.5 68 0.00 33.9
2024/03/01 04:00 0 9.0 177 46.2 45 0.00 22.1
2024/03/01 03:00 0 13.0 168 46.0 45 0.00 22.8
2024/03/01 02:00 0 19.3 172 45.7 56 0.00 35.3
2024/03/01 01:00 0 10.0 167 47.4 49 0.00 28.5
2024/03/01 00:00 0 11.0 217 48.6 49 0.00 37.4
2024/02/29 23:00 0 9.6 207 50.2 34 0.00 22.4
2024/02/29 22:00 0 12.4 191 51.4 31 0.00 27.4
2024/02/29 21:00 0 9.6 172 50.9 30 0.00 16.0